VOCIVOCL

Guest
Details From VOCI - COCHIN INTL
To VOCL - CALICUT
Flight Number -
Tags decoded
Created
Modified
Stats Distance 65 nm / 120 km
Max Altitude 0 ft / 0 m
Waypoints 3
Social Downloads 3
Likes 0
Share VATSIM

Download

Looking for another format? Having issues loading an existing format? Contact us
Advertisement - Login to hide

Notes

Requested: VOCI CLC VOCL

Route

VOCI CLC VOCL

ID Type Via Altitude (ft/m) Position (lat/lon) Dist (leg/tot) Name
O VOCI APT - 0 / 0 10.15200 / 76.40191 - / 0 nm COCHIN INTL
CLC VOR - 0 / 0 11.13515 / 75.95485 64 / 64 nm CALICUT VOR-DME
O VOCL APT - 0 / 0 11.13684 / 75.95530 0 / 64 nm CALICUT

Altitude Profile

Advertisement - Login to hide

VOCI

Details ICAO VOCI (COK)
Name Cochin Intl
Region India
Timezone Asia/Kolkata (UTC+5.5)
Stats Elevation 28 ft / 9 m (AMSL)
Location 10.151100° 76.400500°
Runways 1
Magnetic Variation 1.564° W

METAR

VOCI 230130Z 10002KT 2500 BR SCT015 SCT090 26/24 Q1012 NOSIG

Decode

TAF

TAF VOCI 222300Z 2300/2406 00000KT 4000 HZ FEW015 SCT090 TEMPO 2300/2303 2000 BR FEW025CB BECMG 2305/2306 25010KT 5000 HZ TEMPO 2309/2312 FEW025CB BECMG 2317/2318 00000KT 4000 HZ TEMPO 2323/2403 2000 BR FEW025CB BECMG 2405/2406 25010KT 5000 HZ

Decode

Departure Runways

ID Width Length Bearing (true/mag) Surface Threshold Overrun Markings Lighting
09 148 ft / 45 m 11,155 ft / 3,400 m 87.87° / 89.44° ASPHALT 0 ft / 0 m 0 ft / 0 m PREC-APP CENTERLINE EDGE THRESHOLD ALSF-I
27 148 ft / 45 m 11,155 ft / 3,400 m 267.88° / 269.44° ASPHALT 0 ft / 0 m 0 ft / 0 m PREC-APP CENTERLINE EDGE THRESHOLD ALSF-I TDZ

VOCL

Details ICAO VOCL (CCJ)
Name Calicut International Airport
Region India
Timezone Asia/Kolkata (UTC+5.5)
Stats Elevation 340 ft / 104 m (AMSL)
Location 11.136000° 75.955600°
Runways 1
Magnetic Variation 1.402° W

METAR

VOCL 230130Z 07004KT 5000 BR FEW080 25/22 Q1012 NOSIG

Decode

TAF

TAF VOCL 222300Z 2300/2406 09005KT 4000 HZ FEW015 SCT090 TEMPO 2300/2303 2000 BR FEW025CB BECMG 2305/2306 27010KT 5000 HZ TEMPO 2309/2312 FEW025CB BECMG 2317/2318 09005KT 4000 HZ TEMPO 2323/2403 2000 BR FEW025CB BECMG 2405/2406 27010KT 5000 HZ

Decode

Destination Runways

ID Width Length Bearing (true/mag) Surface Threshold Overrun Markings Lighting
10 148 ft / 45 m 9,392 ft / 2,863 m 100.99° / 102.39° ASPHALT 0 ft / 0 m 200 ft / 61 m PREC-APP CENTERLINE EDGE THRESHOLD MALSF
28 148 ft / 45 m 9,392 ft / 2,863 m 280.99° / 282.40° ASPHALT 0 ft / 0 m 197 ft / 60 m PREC-APP CENTERLINE EDGE THRESHOLD MALSF

Approach Navaids

Runway Type Ident Frequency Range Bearing (true/mag) Slope Elevation
10 LOC-ILS ICLB 110.70 MHz 18 nm / 33 km 100.99° / 102.39 ° - 340 ft / 104 m (AMSL)
10 GS ICLB 110.70 MHz 18 nm / 33 km 100.99° / 102.39 ° 3.00° 340 ft / 104 m (AMSL)
28 LOC-ILS ICAC 109.50 MHz 18 nm / 33 km 280.99° / 282.39 ° - 340 ft / 104 m (AMSL)
28 GS ICAC 109.50 MHz 18 nm / 33 km 280.99° / 282.39 ° 3.20° 340 ft / 104 m (AMSL)
28 DME ICAC 109.50 MHz 18 nm / 33 km - - 342 ft / 104 m (AMSL)

Popular Alternatives